Terminal Aerodrome Forecast
Issued by NWS

Home | Current Version | Previous Version | Text Only | Print | Product List | Glossary On
Versions: 1 2 3 4 5 6 7 8 9 10 11 12 13 14 15 16 17
000
FTUS45 KABQ 042100 AAB
TAFLVS
TAF AMD
KLVS 042131Z 0422/0518 16015KT P6SM VCTS SCT050CB
      TEMPO 0423/0502 3SM TSRA BR OVC030CB
     FM050600 17012KT 2SM BR VCSH OVC005
     FM050900 18009KT 5SM BR OVC010=

USA.gov is the U.S. government's official web portal to all federal, state and local government web resources and services.